createdAt,value
2023-03-20T00:00:09.416Z,3.2
2023-03-20T00:01:15.953Z,3.2
2023-03-20T00:02:23.089Z,3.2
2023-03-20T00:03:30.199Z,3.2
2023-03-20T00:04:37.434Z,3.2
2023-03-20T00:05:44.445Z,3.1
2023-03-20T00:06:50.995Z,3.2
2023-03-20T00:07:58.144Z,3.1
2023-03-20T00:09:07.199Z,3.2
2023-03-20T00:10:12.232Z,3.2
2023-03-20T00:11:19.384Z,3.2
2023-03-20T00:12:26.160Z,3.2
2023-03-20T00:14:40.150Z,3.2
2023-03-20T00:15:47.489Z,3.2
2023-03-20T00:18:00.840Z,3.3
2023-03-20T00:19:08.062Z,3.3
2023-03-20T00:20:15.135Z,3.3
2023-03-20T00:21:22.332Z,3.3
2023-03-20T00:22:29.266Z,3.3
2023-03-20T00:23:36.159Z,3.3
2023-03-20T00:24:43.135Z,3.3
2023-03-20T00:25:50.279Z,3.3
2023-03-20T00:26:57.247Z,3.3
2023-03-20T00:28:04.429Z,3.3
2023-03-20T00:29:10.986Z,3.3
2023-03-20T00:30:18.058Z,3.3
2023-03-20T00:31:25.120Z,3.3
2023-03-20T00:32:32.506Z,3.3
2023-03-20T00:33:39.396Z,3.3
2023-03-20T00:34:46.059Z,3.3
2023-03-20T00:35:53.084Z,3.3
2023-03-20T00:37:00.263Z,3.3
2023-03-20T00:38:07.309Z,3.3
2023-03-20T00:39:14.322Z,3.3
2023-03-20T00:40:20.884Z,3.3
2023-03-20T00:41:28.221Z,3.3
2023-03-20T00:42:35.405Z,3.3
2023-03-20T00:43:42.395Z,3.3
2023-03-20T00:44:49.300Z,3.3
2023-03-20T00:45:56.083Z,3.4
2023-03-20T00:47:03.174Z,3.3
2023-03-20T00:48:10.345Z,3.3
2023-03-20T00:49:17.328Z,3.4
2023-03-20T00:50:23.952Z,3.4
2023-03-20T00:51:31.015Z,3.4
2023-03-20T00:52:38.003Z,3.4
2023-03-20T00:53:45.282Z,3.4
2023-03-20T00:54:52.462Z,3.4
2023-03-20T00:55:58.793Z,3.4
2023-03-20T00:57:06.079Z,3.4
2023-03-20T00:58:13.263Z,3.4
2023-03-20T00:59:20.249Z,3.4
2023-03-20T01:00:27.620Z,3.4
2023-03-20T01:01:33.827Z,3.4
2023-03-20T01:02:40.905Z,3.5
2023-03-20T01:03:48.121Z,3.4
2023-03-20T01:04:55.271Z,3.5
2023-03-20T01:06:02.241Z,3.5
2023-03-20T01:07:08.863Z,3.5
2023-03-20T01:08:16.179Z,3.5
2023-03-20T01:09:23.061Z,3.5
2023-03-20T01:10:30.244Z,3.5
2023-03-20T01:11:37.464Z,3.5
2023-03-20T01:12:44.020Z,3.5
2023-03-20T01:13:51.083Z,3.5
2023-03-20T01:14:58.121Z,3.5
2023-03-20T01:16:05.355Z,3.5
2023-03-20T01:18:18.987Z,3.5
2023-03-20T01:19:26.069Z,3.6
2023-03-20T01:20:33.058Z,3.6
2023-03-20T01:21:40.346Z,3.6
2023-03-20T01:22:47.475Z,3.6
2023-03-20T01:23:54.473Z,3.7
2023-03-20T01:25:00.938Z,3.6
2023-03-20T01:26:08.140Z,3.6
2023-03-20T01:27:15.172Z,3.7
2023-03-20T01:28:22.516Z,3.7
2023-03-20T01:29:28.887Z,3.7
2023-03-20T01:30:36.088Z,3.7
2023-03-20T01:31:43.208Z,3.7
2023-03-20T01:32:50.271Z,3.7
2023-03-20T01:33:57.512Z,3.7
2023-03-20T01:35:03.875Z,3.7
2023-03-20T01:36:11.734Z,3.7
2023-03-20T01:37:18.203Z,3.7
2023-03-20T01:38:25.234Z,3.7
2023-03-20T01:39:32.430Z,3.6
2023-03-20T01:40:38.981Z,3.6
2023-03-20T01:41:46.098Z,3.6
2023-03-20T01:42:53.251Z,3.6
2023-03-20T01:44:00.224Z,3.5
2023-03-20T01:46:14.091Z,3.5
2023-03-20T01:47:20.961Z,3.5
2023-03-20T01:48:28.404Z,3.5
2023-03-20T01:49:35.338Z,3.5
2023-03-20T01:50:42.392Z,3.5
2023-03-20T01:51:49.401Z,3.4
2023-03-20T01:52:56.097Z,3.4
2023-03-20T01:54:03.258Z,3.4
2023-03-20T01:55:10.272Z,3.3
2023-03-20T01:56:17.452Z,3.3
2023-03-20T01:57:23.915Z,3.3
2023-03-20T01:58:31.212Z,3.3
2023-03-20T01:59:38.187Z,3.3
2023-03-20T02:00:45.304Z,3.3
2023-03-20T02:01:52.424Z,3.3
2023-03-20T02:02:58.975Z,3.2
2023-03-20T02:04:06.120Z,3.2
2023-03-20T02:05:13.515Z,3.2
2023-03-20T02:06:20.373Z,3.1
2023-03-20T02:07:27.535Z,3.1
2023-03-20T02:08:34.078Z,3.1
2023-03-20T02:09:41.087Z,3.1
2023-03-20T02:10:48.236Z,3.1
2023-03-20T02:11:55.238Z,3.1
2023-03-20T02:13:02.501Z,3
2023-03-20T02:14:09.013Z,3
2023-03-20T02:15:16.160Z,3
2023-03-20T02:16:23.158Z,2.9
2023-03-20T02:17:30.374Z,2.9
2023-03-20T02:18:37.478Z,2.9
2023-03-20T02:19:43.939Z,2.9
2023-03-20T02:21:58.243Z,2.9
2023-03-20T02:23:05.375Z,2.9
2023-03-20T02:24:12.448Z,2.9
2023-03-20T02:25:18.917Z,2.9
2023-03-20T02:26:26.046Z,2.9
2023-03-20T02:27:33.276Z,2.9
2023-03-20T02:28:40.230Z,2.9
2023-03-20T02:29:47.436Z,2.8
2023-03-20T02:30:54.135Z,2.8
2023-03-20T02:32:01.116Z,2.8
2023-03-20T02:33:08.211Z,2.8
2023-03-20T02:34:15.260Z,2.8
2023-03-20T02:35:22.511Z,2.8
2023-03-20T02:36:29.039Z,2.8
2023-03-20T02:37:36.060Z,2.8
2023-03-20T02:38:43.176Z,2.7
2023-03-20T02:39:50.361Z,2.7
2023-03-20T02:41:03.514Z,2.7
2023-03-20T02:42:04.054Z,2.7
2023-03-20T02:43:11.199Z,2.7
2023-03-20T02:44:18.277Z,2.7
2023-03-20T02:45:25.285Z,2.7
2023-03-20T02:46:32.440Z,2.7
2023-03-20T02:47:38.948Z,2.7
2023-03-20T02:48:46.115Z,2.7
2023-03-20T02:49:53.283Z,2.7
2023-03-20T02:51:02.974Z,2.7
2023-03-20T02:52:07.479Z,2.7
2023-03-20T02:53:14.065Z,2.7
2023-03-20T02:54:21.157Z,2.6
2023-03-20T02:55:28.251Z,2.7
2023-03-20T02:56:35.382Z,2.6
2023-03-20T02:57:41.972Z,2.6
2023-03-20T02:58:49.086Z,2.6
2023-03-20T02:59:56.265Z,2.6
2023-03-20T03:01:03.321Z,2.6
2023-03-20T03:02:10.395Z,2.6
2023-03-20T03:03:17.006Z,2.6
2023-03-20T03:04:24.076Z,2.6
2023-03-20T03:05:31.068Z,2.5
2023-03-20T03:06:38.317Z,2.6
2023-03-20T03:07:45.492Z,2.6
2023-03-20T03:08:51.932Z,2.6
2023-03-20T03:09:59.069Z,2.6
2023-03-20T03:11:06.259Z,2.6
2023-03-20T03:12:13.468Z,2.6
2023-03-20T03:14:27.114Z,2.6
2023-03-20T03:15:34.834Z,2.6
2023-03-20T03:16:41.220Z,2.6
2023-03-20T03:17:48.527Z,2.5
2023-03-20T03:18:55.326Z,2.5
2023-03-20T03:20:02.053Z,2.5
2023-03-20T03:21:09.101Z,2.5
2023-03-20T03:22:16.230Z,2.5
2023-03-20T03:23:23.409Z,2.5
2023-03-20T03:24:40.229Z,2.5
2023-03-20T03:25:37.253Z,2.5
2023-03-20T03:26:44.075Z,2.5
2023-03-20T03:27:51.264Z,2.5
2023-03-20T03:28:58.354Z,2.5
2023-03-20T03:30:05.350Z,2.5
2023-03-20T03:31:12.123Z,2.5
2023-03-20T03:32:19.103Z,2.5
2023-03-20T03:33:26.263Z,2.4
2023-03-20T03:34:33.342Z,2.4
2023-03-20T03:35:40.497Z,2.4
2023-03-20T03:36:46.945Z,2.4
2023-03-20T03:37:54.143Z,2.4
2023-03-20T03:39:01.309Z,2.4
2023-03-20T03:40:08.322Z,2.4
2023-03-20T03:41:15.359Z,2.4
2023-03-20T03:42:22.063Z,2.4
2023-03-20T03:43:29.534Z,2.5
2023-03-20T03:44:36.278Z,2.5
2023-03-20T03:45:43.346Z,2.5
2023-03-20T03:46:50.459Z,2.5
2023-03-20T03:47:57.037Z,2.5
2023-03-20T03:49:04.090Z,2.5
2023-03-20T03:50:11.133Z,2.4
2023-03-20T03:51:18.320Z,2.5
2023-03-20T03:52:25.339Z,2.5
2023-03-20T03:53:32.110Z,2.5
2023-03-20T03:54:39.116Z,2.5
2023-03-20T03:55:46.339Z,2.5
2023-03-20T03:56:53.400Z,2.5
2023-03-20T03:58:00.445Z,2.5
2023-03-20T03:59:07.049Z,2.5
2023-03-20T04:00:14.160Z,2.5
2023-03-20T04:01:21.180Z,2.5
2023-03-20T04:02:28.258Z,2.5
2023-03-20T04:03:35.516Z,2.5
2023-03-20T04:04:41.990Z,2.5
2023-03-20T04:05:49.197Z,2.5
2023-03-20T04:06:56.186Z,2.5
2023-03-20T04:08:03.446Z,2.5
2023-03-20T04:09:10.417Z,2.5
2023-03-20T04:10:16.958Z,2.5
2023-03-20T04:11:24.249Z,2.5
2023-03-20T04:12:31.265Z,2.5
2023-03-20T04:13:38.269Z,2.5
2023-03-20T04:14:45.550Z,2.5
2023-03-20T04:15:52.095Z,2.5
2023-03-20T04:16:59.064Z,2.5
2023-03-20T04:18:06.294Z,2.5
2023-03-20T04:19:13.394Z,2.5
2023-03-20T04:20:20.407Z,2.5
2023-03-20T04:21:27.006Z,2.5
2023-03-20T04:22:34.236Z,2.5
2023-03-20T04:23:41.320Z,2.5
2023-03-20T04:24:48.435Z,2.5
2023-03-20T04:25:55.554Z,2.5
2023-03-20T04:27:02.013Z,2.5
2023-03-20T04:28:09.169Z,2.5
2023-03-20T04:29:16.180Z,2.5
2023-03-20T04:30:23.434Z,2.5
2023-03-20T04:31:30.582Z,2.5
2023-03-20T04:32:37.163Z,2.5
2023-03-20T04:33:44.156Z,2.5
2023-03-20T04:34:51.278Z,2.5
2023-03-20T04:35:58.417Z,2.5
2023-03-20T04:37:05.444Z,2.5
2023-03-20T04:38:12.171Z,2.5
2023-03-20T04:39:19.247Z,2.5
2023-03-20T04:40:26.213Z,2.5
2023-03-20T04:42:40.428Z,2.6
2023-03-20T04:43:47.065Z,2.6
2023-03-20T04:44:54.171Z,2.5
2023-03-20T04:46:01.305Z,2.6
2023-03-20T04:48:15.530Z,2.5
2023-03-20T04:49:22.046Z,2.5
2023-03-20T04:50:29.237Z,2.5
2023-03-20T04:51:36.484Z,2.5
2023-03-20T04:52:43.363Z,2.5
2023-03-20T04:53:49.910Z,2.5
2023-03-20T04:54:57.179Z,2.5
2023-03-20T04:56:04.199Z,2.5
2023-03-20T04:57:11.334Z,2.5
2023-03-20T04:58:18.377Z,2.5
2023-03-20T04:59:25.412Z,2.5
2023-03-20T05:00:32.116Z,2.5
2023-03-20T05:01:39.225Z,2.5
2023-03-20T05:02:46.323Z,2.5
2023-03-20T05:03:53.615Z,2.5
2023-03-20T05:05:00.000Z,2.5
2023-03-20T05:06:07.138Z,2.5
2023-03-20T05:07:14.256Z,2.5
2023-03-20T05:08:21.240Z,2.5
2023-03-20T05:09:28.407Z,2.5
2023-03-20T05:10:35.055Z,2.5
2023-03-20T05:11:42.193Z,2.5
2023-03-20T05:12:49.143Z,2.5
2023-03-20T05:13:56.318Z,2.5
2023-03-20T05:15:03.450Z,2.5
2023-03-20T05:16:09.943Z,2.5
2023-03-20T05:17:17.192Z,2.5
2023-03-20T05:18:24.233Z,2.5
2023-03-20T05:19:31.375Z,2.6
2023-03-20T05:20:38.429Z,2.6
2023-03-20T05:21:44.980Z,2.7
2023-03-20T05:22:52.196Z,2.7
2023-03-20T05:23:59.260Z,2.7
2023-03-20T05:25:06.375Z,2.7
2023-03-20T05:26:13.436Z,2.7
2023-03-20T05:27:20.073Z,2.7
2023-03-20T05:28:27.234Z,2.8
2023-03-20T05:29:34.250Z,2.8
2023-03-20T05:30:41.452Z,2.8
2023-03-20T05:31:48.535Z,2.8
2023-03-20T05:32:55.135Z,2.8
2023-03-20T05:34:02.191Z,2.8
2023-03-20T05:35:09.361Z,2.8
2023-03-20T05:36:16.435Z,2.8
2023-03-20T05:37:23.828Z,2.8
2023-03-20T05:38:30.094Z,2.8
2023-03-20T05:39:37.167Z,2.8
2023-03-20T05:40:44.217Z,2.8
2023-03-20T05:41:51.369Z,2.7
2023-03-20T05:42:58.508Z,2.7
2023-03-20T05:44:05.187Z,2.7
2023-03-20T05:45:12.119Z,2.7
2023-03-20T05:46:19.186Z,2.7
2023-03-20T05:47:26.404Z,2.7
2023-03-20T05:48:33.465Z,2.7
2023-03-20T05:49:40.074Z,2.7
2023-03-20T05:51:54.323Z,2.7
2023-03-20T05:53:01.500Z,2.7
2023-03-20T05:54:08.475Z,2.6
2023-03-20T05:55:15.143Z,2.6
2023-03-20T05:56:22.266Z,2.6
2023-03-20T05:57:29.323Z,2.6
2023-03-20T05:58:36.372Z,2.6
2023-03-20T05:59:43.468Z,2.6
2023-03-20T06:00:50.163Z,2.6
2023-03-20T06:01:57.225Z,2.6
2023-03-20T06:03:04.331Z,2.6
2023-03-20T06:04:11.348Z,2.6
2023-03-20T06:05:18.607Z,2.6
2023-03-20T06:06:25.037Z,2.6
2023-03-20T06:07:32.303Z,2.6
2023-03-20T06:08:39.337Z,2.6
2023-03-20T06:10:53.529Z,2.6
2023-03-20T06:12:00.131Z,2.6
2023-03-20T06:13:07.255Z,2.6
2023-03-20T06:14:14.362Z,2.6
2023-03-20T06:15:21.361Z,2.6
2023-03-20T06:16:28.462Z,2.6
2023-03-20T06:17:35.154Z,2.6
2023-03-20T06:18:42.293Z,2.6
2023-03-20T06:19:49.341Z,2.6
2023-03-20T06:20:56.439Z,2.7
2023-03-20T06:22:03.560Z,2.7
2023-03-20T06:23:10.132Z,2.7
2023-03-20T06:24:17.195Z,2.8
2023-03-20T06:25:24.367Z,2.8
2023-03-20T06:26:31.440Z,2.8
2023-03-20T06:27:38.616Z,2.9
2023-03-20T06:28:45.110Z,2.9
2023-03-20T06:29:52.268Z,2.9
2023-03-20T06:30:59.428Z,2.9
2023-03-20T06:32:06.377Z,3
2023-03-20T06:33:13.582Z,3.1
2023-03-20T06:34:20.116Z,3.1
2023-03-20T06:35:27.266Z,3.1
2023-03-20T06:36:34.285Z,3.1
2023-03-20T06:37:41.368Z,3.1
2023-03-20T06:38:48.064Z,3.2
2023-03-20T06:39:55.091Z,3.2
2023-03-20T06:41:02.937Z,3.2
2023-03-20T06:42:09.368Z,3.3
2023-03-20T06:43:16.479Z,3.3
2023-03-20T06:44:23.080Z,3.3
2023-03-20T06:45:30.063Z,3.3
2023-03-20T06:46:37.322Z,3.3
2023-03-20T06:47:44.378Z,3.3
2023-03-20T06:48:51.466Z,3.3
2023-03-20T06:49:58.061Z,3.4
2023-03-20T06:51:05.229Z,3.4
2023-03-20T06:52:12.181Z,3.4
2023-03-20T06:53:19.426Z,3.4
2023-03-20T06:55:33.014Z,3.4
2023-03-20T06:56:40.158Z,3.3
2023-03-20T06:57:47.422Z,3.3
2023-03-20T06:58:54.310Z,3.3
2023-03-20T07:00:01.415Z,3.3
2023-03-20T07:01:08.108Z,3.3
2023-03-20T07:02:15.111Z,3.3
2023-03-20T07:03:22.406Z,3.3
2023-03-20T07:04:29.588Z,3.3
2023-03-20T07:05:36.782Z,3.4
2023-03-20T07:06:43.124Z,3.4
2023-03-20T07:07:50.361Z,3.4
2023-03-20T07:08:57.380Z,3.4
2023-03-20T07:10:04.425Z,3.4
2023-03-20T07:11:11.533Z,3.4
2023-03-20T07:12:18.388Z,3.4
2023-03-20T07:13:25.791Z,3.4
2023-03-20T07:14:32.250Z,3.4
2023-03-20T07:15:39.318Z,3.4
2023-03-20T07:16:46.605Z,3.5
2023-03-20T07:17:53.135Z,3.5
2023-03-20T07:19:00.250Z,3.5
2023-03-20T07:20:07.393Z,3.5
2023-03-20T07:21:14.455Z,3.5
2023-03-20T07:22:21.429Z,3.5
2023-03-20T07:23:28.131Z,3.6
2023-03-20T07:24:35.279Z,3.7
2023-03-20T07:25:43.303Z,3.7
2023-03-20T07:26:49.393Z,3.7
2023-03-20T07:27:56.466Z,3.7
2023-03-20T07:29:03.264Z,3.7
2023-03-20T07:30:10.259Z,3.7
2023-03-20T07:31:17.264Z,3.7
2023-03-20T07:32:24.362Z,3.7
2023-03-20T07:33:31.658Z,3.8
2023-03-20T07:34:38.024Z,3.8
2023-03-20T07:35:45.410Z,3.8
2023-03-20T07:36:52.417Z,3.9
2023-03-20T07:39:06.648Z,4
2023-03-20T07:40:13.079Z,4.2
2023-03-20T07:41:20.198Z,4.4
2023-03-20T07:42:27.293Z,4.5
2023-03-20T07:43:34.363Z,4.7
2023-03-20T07:44:41.475Z,4.8
2023-03-20T07:45:48.266Z,5
2023-03-20T07:46:55.270Z,5.1
2023-03-20T07:48:02.298Z,5.2
2023-03-20T07:49:09.399Z,5.3
2023-03-20T07:50:16.978Z,5.5
2023-03-20T07:51:23.419Z,5.5
2023-03-20T07:52:30.314Z,5.6
2023-03-20T07:53:37.476Z,5.6
2023-03-20T07:54:44.388Z,5.8
2023-03-20T07:55:51.457Z,5.9
2023-03-20T07:56:58.148Z,6
2023-03-20T07:59:12.531Z,6.2
2023-03-20T08:00:19.509Z,6.3
2023-03-20T08:01:26.580Z,6.4
2023-03-20T08:02:33.163Z,6.5
2023-03-20T08:03:40.425Z,6.6
2023-03-20T08:04:47.366Z,6.7
2023-03-20T08:05:54.481Z,6.8
2023-03-20T08:07:01.545Z,6.9
2023-03-20T08:08:08.166Z,7
2023-03-20T08:09:15.341Z,7
2023-03-20T08:10:22.381Z,7
2023-03-20T08:11:29.381Z,7.2
2023-03-20T08:12:36.622Z,7.1
2023-03-20T08:13:43.178Z,7.2
2023-03-20T08:14:50.281Z,7.2
2023-03-20T08:15:57.446Z,7.2
2023-03-20T08:17:14.270Z,7.2
2023-03-20T08:18:11.616Z,7.3
2023-03-20T08:19:18.128Z,7.3
2023-03-20T08:20:25.292Z,7.3
2023-03-20T08:21:32.476Z,7.3
2023-03-20T08:22:39.403Z,7.3
2023-03-20T08:23:46.023Z,7.3
2023-03-20T08:24:53.543Z,7.4
2023-03-20T08:26:00.274Z,7.3
2023-03-20T08:27:07.441Z,7.2
2023-03-20T08:28:14.493Z,7.2
2023-03-20T08:29:21.033Z,7.2
2023-03-20T08:30:28.192Z,7.2
2023-03-20T08:31:35.295Z,7.2
2023-03-20T08:32:42.369Z,7.1
2023-03-20T08:33:49.528Z,7
2023-03-20T08:34:56.105Z,7
2023-03-20T08:36:03.222Z,6.9
2023-03-20T08:37:10.215Z,6.8
2023-03-20T08:38:17.455Z,6.7
2023-03-20T08:39:24.528Z,6.7
2023-03-20T08:40:31.079Z,6.6
2023-03-20T08:41:38.258Z,6.5
2023-03-20T08:42:45.305Z,6.5
2023-03-20T08:43:52.474Z,6.4
2023-03-20T08:44:59.541Z,6.3
2023-03-20T08:46:06.145Z,6.3
2023-03-20T08:47:13.233Z,6.3
2023-03-20T08:48:20.256Z,6.3
2023-03-20T08:49:27.415Z,6.2
2023-03-20T08:50:34.623Z,6.2
2023-03-20T08:51:41.046Z,6.2
2023-03-20T08:52:48.245Z,6.2
2023-03-20T08:53:55.354Z,6.2
2023-03-20T08:55:02.432Z,6.2
2023-03-20T08:56:09.437Z,6.2
2023-03-20T08:57:16.126Z,6.1
2023-03-20T08:58:23.244Z,6.1
2023-03-20T08:59:30.366Z,6.1
2023-03-20T09:00:37.477Z,6.1
2023-03-20T09:02:51.266Z,6.1
2023-03-20T09:03:58.228Z,6.1
2023-03-20T09:05:05.280Z,6.2
2023-03-20T09:07:19.513Z,6.2
2023-03-20T09:08:26.069Z,6.2
2023-03-20T09:09:33.384Z,6.2
2023-03-20T09:10:40.315Z,6.2
2023-03-20T09:11:47.422Z,6.3
2023-03-20T09:12:54.555Z,6.3
2023-03-20T09:14:01.118Z,6.4
2023-03-20T09:15:08.236Z,6.5
2023-03-20T09:16:15.451Z,6.6
2023-03-20T09:17:22.495Z,6.7
2023-03-20T09:18:29.601Z,6.7
2023-03-20T09:19:36.283Z,6.8
2023-03-20T09:20:43.193Z,6.8
2023-03-20T09:21:50.277Z,6.9
2023-03-20T09:22:57.470Z,7
2023-03-20T09:24:04.616Z,7.2
2023-03-20T09:25:11.160Z,7.2
2023-03-20T09:26:18.263Z,7.3
2023-03-20T09:27:25.480Z,7.4
2023-03-20T09:28:32.418Z,7.4
2023-03-20T09:29:39.549Z,7.5
2023-03-20T09:30:46.210Z,7.5
2023-03-20T09:31:53.290Z,7.5
2023-03-20T09:33:00.309Z,7.6
2023-03-20T09:34:07.497Z,7.7
2023-03-20T09:35:14.585Z,7.7
2023-03-20T09:36:21.080Z,7.8
2023-03-20T09:37:28.266Z,7.8
2023-03-20T09:38:35.379Z,7.8
2023-03-20T09:39:42.562Z,7.9
2023-03-20T09:40:49.563Z,7.9
2023-03-20T09:41:57.711Z,8
2023-03-20T09:43:03.231Z,7.9
2023-03-20T09:44:10.415Z,8
2023-03-20T09:45:17.462Z,8
2023-03-20T09:46:24.693Z,8.1
2023-03-20T09:47:31.193Z,8.1
2023-03-20T09:48:38.256Z,8.1
2023-03-20T09:49:45.344Z,8.2
2023-03-20T09:50:52.566Z,8.1
2023-03-20T09:51:59.130Z,8.1
2023-03-20T09:53:06.209Z,8.2
2023-03-20T09:54:13.240Z,8.2
2023-03-20T09:55:20.413Z,8.3
2023-03-20T09:56:27.506Z,8.3
2023-03-20T09:57:34.143Z,8.3
2023-03-20T09:58:41.223Z,8.4
2023-03-20T09:59:48.216Z,8.5
2023-03-20T10:00:55.355Z,8.5
2023-03-20T10:02:02.552Z,8.5
2023-03-20T10:03:09.017Z,8.5
2023-03-20T10:04:16.441Z,8.5
2023-03-20T10:06:30.434Z,8.5
2023-03-20T10:07:37.497Z,8.6
2023-03-20T10:08:44.162Z,8.6
2023-03-20T10:09:51.269Z,8.6
2023-03-20T10:10:58.357Z,8.7
2023-03-20T10:12:05.681Z,8.7
2023-03-20T10:13:12.543Z,8.6
2023-03-20T10:14:19.164Z,8.7
2023-03-20T10:15:26.205Z,8.8
2023-03-20T10:16:33.424Z,8.7
2023-03-20T10:17:40.462Z,8.7
2023-03-20T10:18:47.602Z,8.7
2023-03-20T10:19:54.190Z,8.7
2023-03-20T10:21:02.975Z,8.8
2023-03-20T10:22:08.252Z,8.8
2023-03-20T10:23:15.458Z,8.8
2023-03-20T10:24:22.520Z,8.8
2023-03-20T10:25:29.179Z,8.8
2023-03-20T10:26:36.277Z,8.8
2023-03-20T10:27:43.348Z,8.7
2023-03-20T10:28:50.417Z,8.6
2023-03-20T10:29:57.603Z,8.6
2023-03-20T10:31:04.155Z,8.4
2023-03-20T10:32:11.419Z,8.4
2023-03-20T10:33:18.368Z,8.4
2023-03-20T10:35:32.676Z,8.2
2023-03-20T10:36:39.074Z,8.2
2023-03-20T10:37:46.202Z,8.1
2023-03-20T10:38:53.334Z,8.1
2023-03-20T10:40:00.381Z,8
2023-03-20T10:41:07.560Z,7.9
2023-03-20T10:42:14.104Z,7.9
2023-03-20T10:43:21.267Z,7.9
2023-03-20T10:44:28.377Z,7.9
2023-03-20T10:45:35.473Z,7.9
2023-03-20T10:46:42.552Z,7.9
2023-03-20T10:47:49.269Z,8
2023-03-20T10:48:56.355Z,8.1
2023-03-20T10:50:03.404Z,8.2
2023-03-20T10:51:10.626Z,8.2
2023-03-20T10:52:17.589Z,8.2
2023-03-20T10:53:24.211Z,8.3
2023-03-20T10:54:31.324Z,8.4
2023-03-20T10:55:38.302Z,8.4
2023-03-20T10:56:45.675Z,8.5
2023-03-20T10:57:52.626Z,8.6
2023-03-20T10:58:59.245Z,8.6
2023-03-20T11:00:06.246Z,8.6
2023-03-20T11:01:13.399Z,8.6
2023-03-20T11:02:20.416Z,8.6
2023-03-20T11:03:27.262Z,8.6
2023-03-20T11:04:34.235Z,8.6
2023-03-20T11:05:41.316Z,8.6
2023-03-20T11:06:48.315Z,8.6
2023-03-20T11:07:55.884Z,8.6
2023-03-20T11:10:09.350Z,8.6
2023-03-20T11:11:16.256Z,8.6
2023-03-20T11:12:34.639Z,8.6
2023-03-20T11:13:30.524Z,8.5
2023-03-20T11:14:37.660Z,8.5
2023-03-20T11:15:44.303Z,8.4
2023-03-20T11:16:51.249Z,8.5
2023-03-20T11:17:58.396Z,8.4
2023-03-20T11:19:06.007Z,8.4
2023-03-20T11:20:12.138Z,8.4
2023-03-20T11:21:19.205Z,8.4
2023-03-20T11:22:26.382Z,8.4
2023-03-20T11:23:33.439Z,8.4
2023-03-20T11:24:40.497Z,8.4
2023-03-20T11:25:47.117Z,8.4
2023-03-20T11:26:54.273Z,8.4
2023-03-20T11:28:01.371Z,8.3
2023-03-20T11:29:08.441Z,8.3
2023-03-20T11:30:15.569Z,8.3
2023-03-20T11:31:22.255Z,8.4
2023-03-20T11:32:29.191Z,8.4
2023-03-20T11:33:36.377Z,8.4
2023-03-20T11:34:43.562Z,8.4
2023-03-20T11:35:50.625Z,8.4
2023-03-20T11:37:09.261Z,8.4
2023-03-20T11:38:04.191Z,8.4
2023-03-20T11:39:11.375Z,8.4
2023-03-20T11:40:18.489Z,8.4
2023-03-20T11:41:25.562Z,8.3
2023-03-20T11:42:32.164Z,8.4
2023-03-20T11:43:39.233Z,8.4
2023-03-20T11:44:46.286Z,8.3
2023-03-20T11:45:53.462Z,8.2
2023-03-20T11:47:00.533Z,8.2
2023-03-20T11:48:07.175Z,8.1
2023-03-20T11:49:14.334Z,8
2023-03-20T11:50:21.407Z,8
2023-03-20T11:51:28.663Z,8
2023-03-20T11:52:35.618Z,7.9
2023-03-20T11:53:42.200Z,7.9
2023-03-20T11:54:49.304Z,7.9
2023-03-20T11:55:56.374Z,7.9
2023-03-20T11:57:03.473Z,7.9
2023-03-20T11:58:10.485Z,7.9
2023-03-20T11:59:17.197Z,7.9
2023-03-20T12:00:24.224Z,8
2023-03-20T12:01:31.416Z,8.1
2023-03-20T12:03:45.711Z,8.1
2023-03-20T12:04:52.127Z,8.1
2023-03-20T12:05:59.237Z,8.1
2023-03-20T12:07:06.437Z,8.1
2023-03-20T12:08:13.575Z,8
2023-03-20T12:09:20.587Z,8
2023-03-20T12:10:27.237Z,7.9
2023-03-20T12:11:34.306Z,7.9
2023-03-20T12:13:48.446Z,7.8
2023-03-20T12:14:55.648Z,7.7
2023-03-20T12:16:02.614Z,7.7
2023-03-20T12:17:09.393Z,7.6
2023-03-20T12:18:16.389Z,7.5
2023-03-20T12:19:23.497Z,7.5
2023-03-20T12:20:30.589Z,7.5
2023-03-20T12:21:37.130Z,7.5
2023-03-20T12:22:44.378Z,7.5
2023-03-20T12:23:51.549Z,7.5
2023-03-20T12:24:58.507Z,7.5
2023-03-20T12:26:05.606Z,7.5
2023-03-20T12:27:12.236Z,7.5
2023-03-20T12:28:19.303Z,7.6
2023-03-20T12:29:26.436Z,7.6
2023-03-20T12:30:49.635Z,7.6
2023-03-20T12:31:40.238Z,7.6
2023-03-20T12:32:47.208Z,7.6
2023-03-20T12:33:54.369Z,7.6
2023-03-20T12:35:01.449Z,7.7
2023-03-20T12:36:08.633Z,7.7
2023-03-20T12:37:15.178Z,7.8
2023-03-20T12:38:22.159Z,7.8
2023-03-20T12:39:29.902Z,7.9
2023-03-20T12:40:36.676Z,7.9
2023-03-20T12:41:43.535Z,8
2023-03-20T12:42:50.127Z,8.1
2023-03-20T12:43:57.203Z,8.1
2023-03-20T12:45:04.368Z,8.1
2023-03-20T12:46:11.487Z,8.1
2023-03-20T12:47:18.512Z,8.1
2023-03-20T12:48:25.156Z,8.2
2023-03-20T12:49:32.216Z,8.2
2023-03-20T12:50:39.318Z,8.2
2023-03-20T12:51:46.382Z,8.2
2023-03-20T12:52:53.463Z,8.3
2023-03-20T12:54:00.211Z,8.3
2023-03-20T12:55:07.264Z,8.2
2023-03-20T12:56:22.053Z,8.3
2023-03-20T12:57:21.393Z,8.2
2023-03-20T12:58:28.540Z,8.2
2023-03-20T12:59:35.178Z,8.2
2023-03-20T13:00:42.189Z,8.2
2023-03-20T13:01:49.377Z,8.2
2023-03-20T13:02:56.558Z,8.1
2023-03-20T13:04:03.518Z,8.1
2023-03-20T13:05:10.182Z,8.1
2023-03-20T13:06:17.218Z,8.1
2023-03-20T13:07:24.449Z,8.1
2023-03-20T13:08:31.403Z,8
2023-03-20T13:09:38.568Z,8
2023-03-20T13:10:45.171Z,8
2023-03-20T13:11:52.266Z,8
2023-03-20T13:12:59.341Z,8
2023-03-20T13:14:06.497Z,8
2023-03-20T13:15:14.784Z,7.9
2023-03-20T13:17:27.264Z,7.9
2023-03-20T13:18:34.302Z,8
2023-03-20T13:19:41.707Z,8
2023-03-20T13:20:48.559Z,8
2023-03-20T13:21:55.181Z,8
2023-03-20T13:23:02.284Z,8
2023-03-20T13:24:14.911Z,8
2023-03-20T13:25:16.530Z,8.1
2023-03-20T13:26:23.524Z,8.1
2023-03-20T13:27:30.155Z,8.1
2023-03-20T13:28:37.226Z,8.1
2023-03-20T13:29:44.362Z,8.1
2023-03-20T13:31:58.601Z,8.1
2023-03-20T13:33:05.305Z,8.1
2023-03-20T13:34:12.337Z,8.1
2023-03-20T13:35:19.378Z,8.1
2023-03-20T13:36:26.440Z,8.1
2023-03-20T13:37:33.548Z,8
2023-03-20T13:38:40.188Z,8
2023-03-20T13:39:47.386Z,7.9
2023-03-20T13:40:54.385Z,7.9
2023-03-20T13:42:01.532Z,7.9
2023-03-20T13:43:08.668Z,7.9
2023-03-20T13:44:15.195Z,7.9
2023-03-20T13:45:22.339Z,7.9
2023-03-20T13:46:29.496Z,7.9
2023-03-20T13:47:36.458Z,7.9
2023-03-20T13:48:43.634Z,7.9
2023-03-20T13:49:50.180Z,7.9
2023-03-20T13:50:57.232Z,7.9
2023-03-20T13:52:04.427Z,7.9
2023-03-20T13:53:11.469Z,7.9
2023-03-20T13:54:18.796Z,7.9
2023-03-20T13:55:25.133Z,7.9
2023-03-20T13:56:32.256Z,7.9
2023-03-20T13:57:39.423Z,8
2023-03-20T13:58:46.647Z,8
2023-03-20T13:59:53.778Z,7.9
2023-03-20T14:01:02.953Z,7.9
2023-03-20T14:02:07.535Z,7.9
2023-03-20T14:03:14.367Z,7.9
2023-03-20T14:04:21.664Z,7.9
2023-03-20T14:05:28.325Z,7.9
2023-03-20T14:06:35.143Z,7.9
2023-03-20T14:07:42.812Z,7.9
2023-03-20T14:08:49.358Z,7.9
2023-03-20T14:09:56.722Z,7.9
2023-03-20T14:11:03.132Z,7.8
2023-03-20T14:12:10.238Z,7.8
2023-03-20T14:13:17.394Z,7.8
2023-03-20T14:14:24.400Z,7.7
2023-03-20T14:15:31.604Z,7.7
2023-03-20T14:16:38.240Z,7.7
2023-03-20T14:17:45.620Z,7.7
2023-03-20T14:18:52.300Z,7.7
2023-03-20T14:21:06.545Z,7.7
2023-03-20T14:22:13.517Z,7.7
2023-03-20T14:23:20.400Z,7.6
2023-03-20T14:24:27.518Z,7.7
2023-03-20T14:25:34.447Z,7.6
2023-03-20T14:26:41.540Z,7.7
2023-03-20T14:27:48.186Z,7.7
2023-03-20T14:28:55.356Z,7.7
2023-03-20T14:30:02.423Z,7.6
2023-03-20T14:31:09.383Z,7.6
2023-03-20T14:32:16.583Z,7.6
2023-03-20T14:33:24.187Z,7.6
2023-03-20T14:34:30.221Z,7.6
2023-03-20T14:35:37.305Z,7.5
2023-03-20T14:36:44.470Z,7.5
2023-03-20T14:37:51.600Z,7.5
2023-03-20T14:38:58.545Z,7.5
2023-03-20T14:40:05.356Z,7.5
2023-03-20T14:41:12.395Z,7.5
2023-03-20T14:42:19.416Z,7.4
2023-03-20T14:43:26.570Z,7.4
2023-03-20T14:44:33.212Z,7.4
2023-03-20T14:45:40.288Z,7.4
2023-03-20T14:46:47.452Z,7.3
2023-03-20T14:47:54.442Z,7.3
2023-03-20T14:49:01.206Z,7.2
2023-03-20T14:50:08.213Z,7.2
2023-03-20T14:51:15.242Z,7.2
2023-03-20T14:52:22.405Z,7.2
2023-03-20T14:53:29.415Z,7.2
2023-03-20T14:54:36.660Z,7.1
2023-03-20T14:55:43.133Z,7.1
2023-03-20T14:56:50.217Z,7.1
2023-03-20T14:57:57.621Z,7.1
2023-03-20T15:00:11.584Z,7.1
2023-03-20T15:01:19.840Z,7.1
2023-03-20T15:02:25.376Z,7.1
2023-03-20T15:03:32.425Z,7.1
2023-03-20T15:04:39.504Z,7.1
2023-03-20T15:05:46.131Z,7.1
2023-03-20T15:06:53.145Z,7.1
2023-03-20T15:08:00.358Z,7.1
2023-03-20T15:09:07.548Z,7.1
2023-03-20T15:10:14.554Z,7.1
2023-03-20T15:11:21.137Z,7.1
2023-03-20T15:12:28.141Z,7.1
2023-03-20T15:13:35.409Z,7.1
2023-03-20T15:14:42.445Z,7.1
2023-03-20T15:15:49.598Z,7.1
2023-03-20T15:16:56.089Z,7.1
2023-03-20T15:18:03.301Z,7
2023-03-20T15:19:10.374Z,7
2023-03-20T15:20:17.349Z,7
2023-03-20T15:21:24.642Z,7
2023-03-20T15:22:31.239Z,7
2023-03-20T15:23:38.757Z,7
2023-03-20T15:24:45.274Z,7
2023-03-20T15:25:52.553Z,7
2023-03-20T15:26:59.553Z,7
2023-03-20T15:28:06.218Z,7
2023-03-20T15:29:13.375Z,7
2023-03-20T15:30:26.694Z,7
2023-03-20T15:31:27.584Z,7
2023-03-20T15:32:34.734Z,7
2023-03-20T15:33:41.060Z,6.9
2023-03-20T15:34:48.157Z,6.9
2023-03-20T15:35:56.014Z,6.9
2023-03-20T15:37:02.503Z,6.9
2023-03-20T15:38:09.619Z,6.9
2023-03-20T15:39:16.369Z,6.9
2023-03-20T15:40:23.309Z,6.9
2023-03-20T15:41:30.457Z,6.9
2023-03-20T15:42:37.386Z,6.9
2023-03-20T15:43:44.707Z,6.9
2023-03-20T15:44:51.229Z,6.9
2023-03-20T15:46:16.268Z,6.9
2023-03-20T15:47:05.411Z,6.9
2023-03-20T15:48:12.533Z,6.9
2023-03-20T15:49:19.628Z,6.9
2023-03-20T15:50:26.219Z,6.9
2023-03-20T15:51:33.385Z,6.9
2023-03-20T15:52:40.424Z,6.9